createdAt,value
2022-07-31T00:02:08.154Z,25.59
2022-07-31T00:07:07.704Z,25.78
2022-07-31T00:12:06.174Z,25.83
2022-07-31T00:17:05.580Z,25.62
2022-07-31T00:22:04.090Z,25.82
2022-07-31T00:27:05.110Z,25.99
2022-07-31T00:32:06.880Z,26.12
2022-07-31T00:37:05.595Z,26.05
2022-07-31T00:42:06.031Z,25.49
2022-07-31T00:47:07.640Z,25.22
2022-07-31T00:52:07.044Z,25.57
2022-07-31T00:57:08.020Z,25.07
2022-07-31T01:02:06.211Z,25.21
2022-07-31T01:07:06.756Z,24.94
2022-07-31T01:12:16.939Z,24.69
2022-07-31T01:17:17.598Z,24.63
2022-07-31T01:22:38.347Z,25.04
2022-07-31T01:27:50.225Z,25.15
2022-07-31T01:32:52.439Z,24.82
2022-07-31T01:37:57.244Z,25.14
2022-07-31T01:43:00.267Z,25.08
2022-07-31T01:48:03.839Z,25.00
2022-07-31T01:53:11.172Z,24.98
2022-07-31T01:58:10.505Z,25.11
2022-07-31T02:03:12.189Z,25.02
2022-07-31T02:08:14.008Z,25.22
2022-07-31T02:13:17.981Z,24.92
2022-07-31T02:18:17.430Z,25.31
2022-07-31T02:23:45.070Z,25.15
2022-07-31T02:28:45.744Z,25.25
2022-07-31T02:33:46.744Z,25.27
2022-07-31T02:38:47.426Z,25.01
2022-07-31T02:43:46.386Z,25.05
2022-07-31T02:48:56.361Z,25.04
2022-07-31T02:53:55.877Z,24.98
2022-07-31T02:59:04.994Z,25.05
2022-07-31T03:04:19.809Z,25.02
2022-07-31T03:09:17.292Z,24.83
2022-07-31T03:14:18.319Z,25.00
2022-07-31T03:19:18.729Z,25.25
2022-07-31T03:24:18.701Z,25.11
2022-07-31T03:29:42.665Z,25.33
2022-07-31T03:34:48.564Z,25.20
2022-07-31T03:39:47.650Z,24.77
2022-07-31T03:44:51.615Z,24.81
2022-07-31T03:49:50.545Z,24.93
2022-07-31T03:54:50.188Z,24.62
2022-07-31T03:59:51.100Z,24.48
2022-07-31T04:04:52.318Z,24.52
2022-07-31T04:10:03.711Z,24.79
2022-07-31T04:15:03.413Z,24.54
2022-07-31T04:20:05.604Z,24.35
2022-07-31T04:25:06.369Z,24.38
2022-07-31T04:30:28.553Z,24.24
2022-07-31T04:35:27.976Z,24.27
2022-07-31T04:40:27.670Z,24.09
2022-07-31T04:45:31.931Z,24.24
2022-07-31T04:50:29.486Z,24.29
2022-07-31T04:55:30.230Z,24.38
2022-07-31T05:00:29.305Z,24.21
2022-07-31T05:05:30.906Z,24.16
2022-07-31T05:10:53.407Z,23.84
2022-07-31T05:15:52.717Z,23.66
2022-07-31T05:20:53.295Z,23.73
2022-07-31T05:26:03.539Z,23.27
2022-07-31T05:31:02.583Z,23.86
2022-07-31T05:36:03.015Z,24.02
2022-07-31T05:41:03.052Z,24.00
2022-07-31T05:46:09.820Z,24.08
2022-07-31T05:51:10.631Z,24.07
2022-07-31T05:56:09.532Z,24.13
2022-07-31T06:01:13.179Z,23.94
2022-07-31T06:06:17.531Z,24.02
2022-07-31T06:11:27.257Z,24.18
2022-07-31T06:16:27.047Z,24.27
2022-07-31T06:21:30.914Z,24.75
2022-07-31T06:26:32.032Z,24.90
2022-07-31T06:31:41.614Z,24.94
2022-07-31T06:36:42.400Z,25.26
2022-07-31T06:41:51.982Z,25.40
2022-07-31T06:47:03.671Z,25.46
2022-07-31T06:52:23.791Z,25.35
2022-07-31T06:57:35.431Z,25.48
2022-07-31T07:02:48.639Z,25.48
2022-07-31T07:07:49.483Z,25.53
2022-07-31T07:12:49.546Z,25.74
2022-07-31T07:17:55.812Z,25.52
2022-07-31T07:23:05.647Z,25.80
2022-07-31T07:28:29.339Z,25.79
2022-07-31T07:33:54.668Z,25.34
2022-07-31T07:38:56.350Z,25.56
2022-07-31T07:43:55.527Z,25.71
2022-07-31T07:48:58.598Z,25.83
2022-07-31T07:54:08.778Z,25.94
2022-07-31T07:59:32.829Z,26.27
2022-07-31T08:05:04.535Z,26.43
2022-07-31T08:10:27.621Z,26.66
2022-07-31T08:15:39.478Z,27.17
2022-07-31T08:20:55.560Z,27.17
2022-07-31T08:25:54.060Z,27.03
2022-07-31T08:30:55.714Z,27.08
2022-07-31T08:35:57.193Z,26.99
2022-07-31T08:40:56.745Z,27.52
2022-07-31T08:46:05.340Z,27.20
2022-07-31T08:51:11.783Z,27.61
2022-07-31T08:56:34.552Z,27.97
2022-07-31T09:01:36.751Z,28.25
2022-07-31T09:06:36.297Z,28.29
2022-07-31T09:11:35.467Z,28.52
2022-07-31T09:16:57.107Z,28.78
2022-07-31T09:21:55.406Z,28.85
2022-07-31T09:27:05.512Z,29.17
2022-07-31T09:32:19.758Z,29.54
2022-07-31T09:37:53.729Z,29.27
2022-07-31T09:43:16.749Z,29.14
2022-07-31T09:48:26.838Z,28.83
2022-07-31T09:54:02.975Z,28.80
2022-07-31T09:59:34.599Z,29.06
2022-07-31T10:04:39.440Z,29.69
2022-07-31T10:15:26.910Z,30.04
2022-07-31T10:20:52.018Z,30.48
2022-07-31T10:26:13.454Z,30.11
2022-07-31T10:31:15.566Z,29.88
2022-07-31T10:36:23.244Z,30.27
2022-07-31T10:41:55.279Z,30.30
2022-07-31T10:46:55.561Z,30.16
2022-07-31T10:52:13.272Z,30.71
2022-07-31T10:57:28.386Z,31.01
2022-07-31T11:02:49.823Z,31.36
2022-07-31T11:08:05.592Z,31.31
2022-07-31T11:13:36.639Z,31.66
2022-07-31T11:19:10.969Z,31.45
2022-07-31T11:24:17.825Z,31.31
2022-07-31T11:29:58.992Z,31.43
2022-07-31T11:35:01.004Z,31.38
2022-07-31T11:40:06.216Z,31.64
2022-07-31T11:45:12.867Z,31.21
2022-07-31T11:50:15.632Z,31.12
2022-07-31T11:55:16.607Z,31.32
2022-07-31T12:00:26.911Z,31.17
2022-07-31T12:05:38.826Z,30.50
2022-07-31T12:10:42.356Z,30.79
2022-07-31T12:16:07.074Z,30.99
2022-07-31T12:21:06.696Z,30.60
2022-07-31T12:26:05.871Z,30.73
2022-07-31T12:31:04.751Z,30.29
2022-07-31T12:36:29.196Z,30.94
2022-07-31T12:41:29.079Z,30.65
2022-07-31T12:46:38.194Z,30.98
2022-07-31T12:51:45.112Z,31.12
2022-07-31T12:56:49.965Z,31.23
2022-07-31T13:01:50.364Z,31.42
2022-07-31T13:06:54.278Z,32.64
2022-07-31T13:11:57.920Z,33.49
2022-07-31T13:16:58.723Z,34.56
2022-07-31T13:21:59.640Z,33.21
2022-07-31T13:26:59.454Z,32.26
2022-07-31T13:31:58.970Z,32.51
2022-07-31T13:37:03.979Z,35.21
2022-07-31T13:42:03.139Z,36.28
2022-07-31T13:47:05.953Z,35.46
2022-07-31T13:52:11.830Z,34.70
2022-07-31T13:57:12.312Z,33.44
2022-07-31T14:02:16.021Z,33.16
2022-07-31T14:07:14.334Z,33.16
2022-07-31T14:12:16.667Z,35.66
2022-07-31T14:17:17.452Z,36.42
2022-07-31T14:22:17.979Z,37.60
2022-07-31T14:27:16.733Z,38.60
2022-07-31T14:32:15.332Z,38.02
2022-07-31T14:37:13.680Z,38.54
2022-07-31T14:42:14.465Z,38.01
2022-07-31T14:47:15.601Z,36.28
2022-07-31T14:52:16.259Z,34.45
2022-07-31T14:57:21.923Z,33.77
2022-07-31T15:02:23.608Z,33.58
2022-07-31T15:07:38.593Z,33.62
2022-07-31T15:12:44.377Z,33.20
2022-07-31T15:17:45.766Z,33.65
2022-07-31T15:22:48.108Z,33.30
2022-07-31T15:27:47.160Z,33.41
2022-07-31T15:32:45.872Z,33.66
2022-07-31T15:37:46.686Z,34.29
2022-07-31T15:42:46.412Z,34.20
2022-07-31T15:47:46.960Z,33.78
2022-07-31T15:52:48.502Z,33.96
2022-07-31T15:57:49.893Z,34.27
2022-07-31T16:02:50.894Z,33.84
2022-07-31T16:08:28.599Z,34.50
2022-07-31T16:13:13.782Z,35.40
2022-07-31T16:18:18.539Z,35.44
2022-07-31T16:23:17.631Z,34.91
2022-07-31T16:28:16.098Z,34.40
2022-07-31T16:33:22.831Z,34.95
2022-07-31T16:38:23.638Z,35.44
2022-07-31T16:43:49.126Z,35.53
2022-07-31T16:48:45.267Z,34.83
2022-07-31T16:54:13.380Z,33.09
2022-07-31T16:59:20.199Z,32.21
2022-07-31T17:04:42.357Z,30.59
2022-07-31T17:09:44.279Z,29.50
2022-07-31T17:14:58.858Z,28.37
2022-07-31T17:19:57.798Z,27.54
2022-07-31T17:24:57.050Z,26.85
2022-07-31T17:30:00.332Z,26.58
2022-07-31T17:35:02.154Z,26.45
2022-07-31T17:40:03.637Z,26.28
2022-07-31T17:45:06.189Z,26.30
2022-07-31T17:50:08.552Z,26.53
2022-07-31T17:55:15.145Z,26.54
2022-07-31T18:00:15.311Z,26.33
2022-07-31T18:05:24.058Z,25.83
2022-07-31T18:10:53.546Z,25.94
2022-07-31T18:15:54.535Z,25.85
2022-07-31T18:20:55.283Z,26.03
2022-07-31T18:25:57.495Z,25.97
2022-07-31T18:30:58.590Z,25.61
2022-07-31T18:35:59.026Z,25.71
2022-07-31T18:40:56.952Z,25.89
2022-07-31T18:45:58.322Z,26.10
2022-07-31T18:51:04.600Z,26.32
2022-07-31T18:56:04.823Z,26.46
2022-07-31T19:01:08.895Z,25.52
2022-07-31T19:06:06.920Z,25.61
2022-07-31T19:11:07.897Z,26.11
2022-07-31T19:16:09.324Z,26.17
2022-07-31T19:21:23.336Z,25.87
2022-07-31T19:26:29.594Z,25.88
2022-07-31T19:31:31.341Z,26.06
2022-07-31T19:36:31.547Z,25.62
2022-07-31T19:41:32.913Z,26.18
2022-07-31T19:46:35.151Z,25.99
2022-07-31T19:51:34.596Z,26.07
2022-07-31T19:56:34.173Z,25.75
2022-07-31T20:01:34.722Z,25.95
2022-07-31T20:06:32.232Z,26.03
2022-07-31T20:11:33.311Z,25.89
2022-07-31T20:16:33.299Z,25.63
2022-07-31T20:21:35.040Z,25.44
2022-07-31T20:26:37.287Z,25.38
2022-07-31T20:31:57.057Z,25.10
2022-07-31T20:37:04.296Z,25.10
2022-07-31T20:42:03.619Z,24.50
2022-07-31T20:47:12.572Z,24.94
2022-07-31T20:52:14.432Z,24.87
2022-07-31T20:57:14.029Z,24.71
2022-07-31T21:02:12.751Z,24.81
2022-07-31T21:07:25.128Z,24.73
2022-07-31T21:12:32.280Z,24.68
2022-07-31T21:17:34.082Z,24.53
2022-07-31T21:22:37.519Z,24.14
2022-07-31T21:27:39.966Z,24.24
2022-07-31T21:32:41.435Z,24.17
2022-07-31T21:37:47.319Z,23.83
2022-07-31T21:42:46.671Z,23.82
2022-07-31T21:47:52.930Z,23.93
2022-07-31T21:52:55.998Z,23.63
2022-07-31T21:57:58.804Z,23.81
2022-07-31T22:03:05.056Z,23.76
2022-07-31T22:08:11.541Z,23.71
2022-07-31T22:18:27.791Z,24.08
2022-07-31T22:23:35.992Z,24.01
2022-07-31T22:28:47.896Z,24.18
2022-07-31T22:33:45.530Z,23.96
2022-07-31T22:38:48.003Z,24.04
2022-07-31T22:44:12.958Z,23.62
2022-07-31T22:49:09.863Z,23.64
2022-07-31T22:54:09.574Z,23.59
2022-07-31T22:59:12.682Z,23.78
2022-07-31T23:04:16.750Z,23.68
2022-07-31T23:09:15.731Z,23.47
2022-07-31T23:14:24.669Z,23.47
2022-07-31T23:19:24.653Z,23.53
2022-07-31T23:24:24.986Z,23.46
2022-07-31T23:29:23.392Z,23.27
2022-07-31T23:34:22.510Z,23.17
2022-07-31T23:39:23.693Z,23.26
2022-07-31T23:44:24.949Z,23.16
2022-07-31T23:49:26.110Z,23.38
2022-07-31T23:54:25.287Z,23.06
2022-07-31T23:59:24.074Z,22.98
